»·PEaware :: N6071H KSDM-KSMO

N6071H :: KSDM-KSMO

FLIGHT INFORMATION

Flight Status: Arrived
Operator: Privately registered:
United States
More flights under this callsign
Pilot: Brian D. (22974)
Aircraft: PIPER PA-28 CHEROKEE ARCHER
(PA28)
More flights by this aircraft type
Origin: KSDM Brown Mun
United States
Destination: KSMO Santa Monica Mun
United States
More flights between these airports :: More routes between these airports
Route:
File this flight plan on PilotEdge
Remarks: KSAN VFR corridor dead reckoning then V25 towards the LA bravo
Altitude:
(Current/Filed)
4,500ft
Speed:
(Current/Filed)
120kts
Departed: 06-Sep-21 04:03 PM
Arrived: 06-Sep-21 05:20 PM
Distance/Time
Traveled:
114nm/1:17
Distance/Time
To Go:
Arrived

Flight Plot

Page will automatically refresh every two minutes.

Flight plan parsing failed; only flown route is shown


Map Options




Map Legend


Flown Route
Filed Route
Departure Airport
Arrival Airport
Navaid (VOR, NDB)
Fix

Horizontal Profiles

Position Reports

Time Latitude Longitude Heading Altitude Ground
Speed
06-Sep-21 15:44 32.570117 -116.984908 112 522ft 0kts
06-Sep-21 15:45 32.570167 -116.985045 111 522ft 0kts
06-Sep-21 15:46 32.570167 -116.985045 111 522ft 0kts
06-Sep-21 15:47 32.570167 -116.985045 111 522ft 0kts
06-Sep-21 15:48 32.570167 -116.985045 111 522ft 0kts
06-Sep-21 15:49 32.570167 -116.985045 111 522ft 0kts
06-Sep-21 15:50 32.570167 -116.985045 111 522ft 0kts
06-Sep-21 15:51 32.570166 -116.985043 110 522ft 0kts
06-Sep-21 15:52 32.570166 -116.985043 110 522ft 0kts
06-Sep-21 15:53 32.570166 -116.985043 110 522ft 0kts
06-Sep-21 15:54 32.570166 -116.985043 110 522ft 0kts
06-Sep-21 15:55 32.570166 -116.985043 110 522ft 0kts
06-Sep-21 15:56 32.570166 -116.985043 110 522ft 0kts
06-Sep-21 15:57 32.570516 -116.984869 12 522ft 5kts
06-Sep-21 15:58 32.570484 -116.981951 92 524ft 9kts
06-Sep-21 15:59 32.570174 -116.978248 95 518ft 15kts
06-Sep-21 16:00 32.569664 -116.972199 94 508ft 20kts
06-Sep-21 16:01 32.570457 -116.968336 7 508ft 7kts
06-Sep-21 16:02 32.571560 -116.968200 353 509ft 8kts
06-Sep-21 16:03 32.573254 -116.983782 273 608ft 93kts
06-Sep-21 16:04 32.588402 -117.008142 318 1291ft 106kts
06-Sep-21 16:05 32.607607 -117.034303 302 1965ft 107kts
06-Sep-21 16:06 32.624555 -117.063410 301 2616ft 109kts
06-Sep-21 16:07 32.638267 -117.095773 293 3177ft 111kts
06-Sep-21 16:08 32.650132 -117.130885 289 3615ft 119kts
06-Sep-21 16:09 32.679167 -117.148373 348 3690ft 130kts
06-Sep-21 16:09 32.705698 -117.162981 322 3791ft 132kts
06-Sep-21 16:10 32.733525 -117.175925 359 3913ft 130kts
06-Sep-21 16:12 32.776297 -117.175627 355 3949ft 132kts
06-Sep-21 16:13 32.803386 -117.196819 305 3928ft 125kts
06-Sep-21 16:13 32.820252 -117.227242 302 3789ft 135kts
06-Sep-21 16:14 32.843204 -117.259136 351 3620ft 138kts
06-Sep-21 16:16 32.887230 -117.264738 351 3506ft 136kts
06-Sep-21 16:17 32.924597 -117.271583 352 3405ft 136kts
06-Sep-21 16:17 32.955499 -117.276537 346 3061ft 135kts
06-Sep-21 16:18 32.992773 -117.281284 355 1941ft 137kts
06-Sep-21 16:19 33.027131 -117.296467 334 917ft 133kts
06-Sep-21 16:20 33.059668 -117.312003 322 1310ft 116kts
06-Sep-21 16:21 33.085194 -117.334804 327 1792ft 115kts
06-Sep-21 16:22 33.113940 -117.352208 320 2223ft 115kts
06-Sep-21 16:23 33.134460 -117.379338 286 2700ft 108kts
06-Sep-21 16:24 33.139139 -117.415209 271 3095ft 110kts
06-Sep-21 16:26 33.147707 -117.455471 273 3594ft 105kts
06-Sep-21 16:26 33.152188 -117.484864 288 3897ft 107kts
06-Sep-21 16:27 33.164940 -117.517801 302 4244ft 109kts
06-Sep-21 16:28 33.183723 -117.546648 310 4629ft 110kts
06-Sep-21 16:29 33.201634 -117.576513 307 4973ft 111kts
06-Sep-21 16:31 33.221723 -117.614434 300 4834ft 117kts
06-Sep-21 16:31 33.236844 -117.641552 308 4648ft 117kts
06-Sep-21 16:32 33.256650 -117.672134 306 4527ft 115kts
06-Sep-21 16:33 33.275602 -117.702883 304 4512ft 114kts
06-Sep-21 16:34 33.292344 -117.735099 298 4508ft 114kts
06-Sep-21 16:35 33.304053 -117.770138 312 4517ft 117kts
06-Sep-21 16:36 33.328563 -117.793346 324 4630ft 115kts
06-Sep-21 16:37 33.353392 -117.818849 319 4636ft 119kts
06-Sep-21 16:38 33.380849 -117.847508 319 4649ft 140kts
06-Sep-21 16:39 33.410797 -117.878932 318 4642ft 145kts
06-Sep-21 16:40 33.441236 -117.910912 318 4637ft 145kts
06-Sep-21 16:41 33.471693 -117.942938 318 4636ft 145kts
06-Sep-21 16:42 33.498490 -117.971148 317 4602ft 100kts
06-Sep-21 16:43 33.518014 -117.991779 317 4522ft 94kts
06-Sep-21 16:44 33.539048 -118.013813 318 4677ft 117kts
06-Sep-21 16:45 33.560319 -118.036314 318 5220ft 100kts
06-Sep-21 16:46 33.581742 -118.058907 318 5406ft 118kts
06-Sep-21 16:47 33.606021 -118.084580 319 5949ft 110kts
06-Sep-21 16:48 33.629304 -118.109160 319 6468ft 112kts
06-Sep-21 16:49 33.652875 -118.134081 319 6906ft 119kts
06-Sep-21 16:50 33.679348 -118.162127 319 6909ft 134kts
06-Sep-21 16:51 33.707218 -118.191063 321 6653ft 149kts
06-Sep-21 16:52 33.732896 -118.219416 314 6670ft 140kts
06-Sep-21 16:53 33.759161 -118.251015 316 6762ft 134kts
06-Sep-21 16:54 33.786009 -118.282299 314 6818ft 134kts
06-Sep-21 16:55 33.812818 -118.314053 315 6703ft 141kts
06-Sep-21 16:56 33.841648 -118.348183 313 6043ft 147kts
06-Sep-21 16:57 33.868610 -118.382169 311 5786ft 131kts
06-Sep-21 16:58 33.897230 -118.406747 325 5744ft 127kts
06-Sep-21 16:59 33.924294 -118.428181 321 5740ft 127kts
06-Sep-21 17:00 33.956092 -118.438859 15 5754ft 128kts
06-Sep-21 17:01 33.990479 -118.432054 337 5746ft 127kts
06-Sep-21 17:02 34.016785 -118.460463 308 5695ft 129kts
06-Sep-21 17:03 34.049957 -118.475202 2 5534ft 137kts
06-Sep-21 17:04 34.086977 -118.467181 8 5560ft 130kts
06-Sep-21 17:05 34.121721 -118.471233 347 5712ft 124kts
06-Sep-21 17:06 34.156285 -118.476554 354 5671ft 133kts
06-Sep-21 17:07 34.193628 -118.483112 350 5177ft 134kts
06-Sep-21 17:08 34.230304 -118.487475 342 4767ft 131kts
06-Sep-21 17:09 34.264239 -118.500616 300 4389ft 124kts
06-Sep-21 17:10 34.241407 -118.516905 187 4097ft 115kts
06-Sep-21 17:11 34.209480 -118.521906 191 3877ft 115kts
06-Sep-21 17:12 34.178669 -118.513321 140 3643ft 122kts
06-Sep-21 17:13 34.153806 -118.486348 140 3669ft 120kts
06-Sep-21 17:14 34.122295 -118.473594 176 3628ft 126kts
06-Sep-21 17:15 34.091429 -118.464631 121 2973ft 119kts
06-Sep-21 17:16 34.074876 -118.430593 125 2556ft 119kts
06-Sep-21 17:17 34.050412 -118.407104 198 2410ft 117kts
06-Sep-21 17:18 34.031070 -118.433687 223 1001ft 97kts
06-Sep-21 17:19 34.015404 -118.451824 225 151ft 19kts
06-Sep-21 17:20 34.014310 -118.452354 134 145ft 0kts
06-Sep-21 17:21 34.014619 -118.451597 65 148ft 8kts
06-Sep-21 17:22 34.015153 -118.450009 3 145ft 0kts
06-Sep-21 17:23 34.015153 -118.450009 3 145ft 0kts
06-Sep-21 17:24 34.015153 -118.450009 3 145ft 0kts
06-Sep-21 17:25 34.015153 -118.450009 3 145ft 0kts
06-Sep-21 17:26 34.015153 -118.450009 3 145ft 0kts
06-Sep-21 17:27 34.015153 -118.450009 3 145ft 0kts
06-Sep-21 17:28 34.015153 -118.450009 3 145ft 0kts
06-Sep-21 17:29 34.015153 -118.450009 3 145ft 0kts
06-Sep-21 17:30 34.015153 -118.450009 3 145ft 0kts
06-Sep-21 17:31 34.015153 -118.450009 3 145ft 0kts
06-Sep-21 17:32 34.015153 -118.450009 3 145ft 0kts
06-Sep-21 17:33 34.015153 -118.450009 3 145ft 0kts
06-Sep-21 17:34 34.015153 -118.450009 3 145ft 0kts

Navigation Log

Ident Type
Flight plan parsing failed, navigation log unavailable